Overview Statistics Trail Chart Weather Telemetry Raw packets
 

This is the latest recevied weather packets stored in our database for station/object 9W2CHF-2. If no packets are shown the sender has not sent any weather packets the latest 10 day(s).

<< 32 33 34 35 36 37 38 >>
Time Temp. Humidity Pressure Rain* Wind** Luminosity Snow
1787857240 32.78° C 65% 1012.6 hPa - - - -
1787856340 32.78° C 65% 1012.8 hPa - - - -
1787855440 32.78° C 66% 1012.9 hPa - - - -
1787854540 32.78° C 65% 1012.9 hPa - - - -
1787853640 32.78° C 64% 1013.2 hPa - - - -
1787852740 32.78° C 66% 1013.1 hPa - - - -
1787851848 32.78° C 65% 1013.3 hPa - - - -
1787850948 32.78° C 66% 1013.6 hPa - - - -
1787850048 33.33° C 66% 1013.8 hPa - - - -
1787849148 33.33° C 64% 1013.9 hPa - - - -
1787848248 32.78° C 66% 1014.1 hPa - - - -
1787847347 32.78° C 65% 1014 hPa - - - -
1787846447 33.33° C 65% 1013.9 hPa - - - -
1787845547 33.33° C 65% 1013.9 hPa - - - -
1787844647 33.33° C 64% 1014 hPa - - - -
1787843747 31.67° C 72% 1013.9 hPa - - - -
1787842847 31.67° C 72% 1013.8 hPa - - - -
1787841947 32.22° C 70% 1014 hPa - - - -
1787841046 33.33° C 64% 1013.8 hPa - - - -
1787840152 33.89° C 64% 1013.7 hPa - - - -
1787839246 32.22° C 71% 1013.6 hPa - - - -
1787838346 32.78° C 70% 1013.2 hPa - - - -
1787837445 33.89° C 66% 1012.9 hPa - - - -
1787836545 32.78° C 68% 1012.6 hPa - - - -
1787835645 31.67° C 70% 1012.2 hPa - - - -

* Rain since midnight (hover to see other rain measurements)
** Current wind speed in m/s (hover to see current wind gust speed)